KD9IXX-13 Weather Reports


Display with metric or nautical units.
time (UTC)temp
F
wind
direction
speed
MPH
gust
MPH
rain 1hr
in
rain 24hr
in
rain mn
in
humidity
%
barometer
mb
20240523101502 50 307 0.0 0.0 0.00 0.00 0.00 89 1015.2
20240523101002 51 307 0.0 0.0 0.00 0.00 0.00 88 1015.2
20240523100502 51 307 0.0 0.0 0.00 0.00 0.00 88 1015.1
20240523100002 52 307 0.0 0.0 0.00 0.00 0.00 87 1015.3
20240523095501 52 307 0.0 0.0 0.00 0.00 0.00 86 1015.1
20240523095003 52 307 0.0 0.0 0.00 0.00 0.00 85 1015.2
20240523094502 52 307 0.0 0.0 0.00 0.00 0.00 84 1015.1
20240523094002 52 307 0.0 0.0 0.00 0.00 0.00 85 1015.1
20240523093502 53 307 0.0 0.0 0.00 0.00 0.00 83 1015.2
20240523093003 54 307 0.0 0.0 0.00 0.00 0.00 82 1015.1
20240523092502 54 302 0.0 0.0 0.00 0.00 0.00 80 1015.2
20240523092001 55 301 0.0 0.0 0.00 0.00 0.00 79 1015.3
20240523091502 54 287 1.0 2.0 0.00 0.00 0.00 80 1015.4
20240523091002 53 297 0.0 0.0 0.00 0.00 0.00 83 1015.5
20240523090502 53 297 0.0 0.0 0.00 0.00 0.00 83 1015.1
20240523090002 54 296 0.0 0.0 0.00 0.00 0.00 82 1015.1
20240523085502 54 305 0.0 2.0 0.00 0.00 0.00 81 1014.9
20240523085002 52 299 0.0 0.0 0.00 0.00 0.00 85 1015.0
20240523084502 52 312 0.0 0.0 0.00 0.00 0.00 85 1015.0
20240523084003 52 312 0.0 0.0 0.00 0.00 0.00 84 1015.2
20240523083501 53 312 0.0 0.0 0.00 0.00 0.00 83 1014.9
20240523083003 53 312 0.0 0.0 0.00 0.00 0.00 82 1015.1
20240523082503 53 311 0.0 0.0 0.00 0.00 0.00 81 1015.1
20240523082002 53 312 0.0 0.0 0.00 0.00 0.00 83 1015.0
20240523081502 53 313 0.0 0.0 0.00 0.00 0.00 83 1014.9
20240523081002 53 312 0.0 0.0 0.00 0.00 0.00 82 1015.1
20240523080502 54 313 0.0 0.0 0.00 0.00 0.00 81 1015.0
20240523080002 54 313 0.0 0.0 0.00 0.00 0.00 80 1015.0
20240523075502 54 313 0.0 0.0 0.00 0.00 0.00 79 1015.0
20240523075002 55 313 0.0 0.0 0.00 0.00 0.00 78 1015.1
20240523074503 56 307 0.0 0.0 0.00 0.00 0.00 77 1015.1
20240523074002 56 281 2.0 3.0 0.00 0.00 0.00 76 1015.1
20240523073503 54 294 0.0 0.0 0.00 0.00 0.00 78 1015.3
20240523073003 54 295 0.0 0.0 0.00 0.00 0.00 78 1015.3
20240523072502 55 294 0.0 2.0 0.00 0.00 0.00 76 1015.2
20240523072003 55 305 0.0 0.0 0.00 0.00 0.00 77 1014.8
20240523071502 56 303 0.0 0.0 0.00 0.00 0.00 74 1015.2
20240523071001 57 299 0.0 2.0 0.00 0.00 0.00 73 1015.2
20240523070502 57 294 1.0 2.0 0.00 0.00 0.00 72 1015.4
20240523070002 57 278 1.0 3.0 0.00 0.00 0.00 71 1015.1
20240523065501 57 272 2.0 3.0 0.00 0.00 0.00 71 1015.3
20240523065003 57 258 1.0 4.0 0.00 0.00 0.00 72 1015.3
20240523064502 56 280 1.0 2.0 0.00 0.00 0.00 75 1015.0
20240523064002 56 306 0.0 0.0 0.00 0.00 0.00 75 1015.1
20240523063501 57 302 0.0 0.0 0.00 0.00 0.00 73 1015.1
20240523063002 57 280 1.0 3.0 0.00 0.00 0.00 72 1015.1
20240523062503 56 258 2.0 3.0 0.00 0.00 0.00 73 1015.0
20240523062002 55 280 1.0 2.0 0.00 0.00 0.00 77 1015.2
20240523061503 56 311 0.0 0.0 0.00 0.00 0.00 74 1015.0
20240523061002 57 312 0.0 0.0 0.00 0.00 0.00 72 1015.1
20240523060503 58 312 0.0 0.0 0.00 0.00 0.00 70 1015.1
20240523060002 59 299 0.0 0.0 0.00 0.00 0.00 68 1015.4
20240523055502 59 284 2.0 3.0 0.00 0.00 0.00 67 1015.4
20240523055002 59 260 2.0 4.0 0.00 0.00 0.00 67 1015.3
20240523054503 58 261 2.0 4.0 0.00 0.00 0.00 68 1015.0
20240523054002 58 276 2.0 3.0 0.00 0.00 0.00 69 1015.0
20240523053503 58 267 2.0 4.0 0.00 0.00 0.00 70 1014.7
20240523053002 56 266 2.0 2.0 0.00 0.00 0.00 72 1014.7
20240523052504 56 309 0.0 0.0 0.00 0.00 0.00 74 1014.7
20240523052003 57 309 0.0 0.0 0.00 0.00 0.00 72 1014.6
20240523051502 58 300 0.0 2.0 0.00 0.00 0.00 70 1014.6
20240523051002 57 218 2.0 3.0 0.00 0.00 0.00 71 1014.4
20240523050501 57 317 0.0 0.0 0.00 0.00 0.00 73 1014.7
20240523050002 58 319 0.0 2.0 0.00 0.00 0.00 71 1014.5
20240523045502 59 213 2.0 3.0 0.00 0.00 0.00 69 1014.4
20240523045002 59 251 2.0 2.0 0.00 0.00 0.00 68 1014.5
20240523044502 59 291 1.0 2.0 0.00 0.00 0.00 68 1014.4
20240523044002 60 276 1.0 2.0 0.00 0.00 0.00 65 1014.3
20240523043501 58 284 1.0 2.0 0.00 0.00 0.00 67 1014.2
20240523043002 59 311 0.0 0.0 0.00 0.00 0.00 67 1014.2
20240523042502 60 289 2.0 2.0 0.00 0.00 0.00 66 1014.1
20240523042002 60 285 1.0 3.0 0.00 0.00 0.00 66 1014.1
20240523041503 58 264 2.0 2.0 0.00 0.00 0.00 70 1014.0
20240523041001 57 293 1.0 2.0 0.00 0.00 0.00 77 1013.8
20240523040502 57 293 0.0 2.0 0.00 0.00 0.00 76 1013.8
20240523040003 59 314 0.0 2.0 0.00 0.00 0.00 74 1013.9
20240523035503 57 285 1.0 2.0 0.00 0.00 0.00 70 1013.9
20240523035003 56 286 0.0 0.0 0.00 0.00 0.00 76 1013.6
20240523034502 56 286 0.0 0.0 0.00 0.00 0.00 74 1013.5
20240523034002 57 286 0.0 0.0 0.00 0.00 0.00 73 1013.4
20240523033502 57 286 0.0 0.0 0.00 0.00 0.00 74 1013.5
20240523033002 57 286 0.0 0.0 0.00 0.00 0.00 73 1013.7
20240523032501 58 286 0.0 0.0 0.00 0.00 0.00 73 1013.6
20240523032002 57 286 0.0 2.0 0.00 0.00 0.00 72 1013.5
20240523031502 56 286 0.0 0.0 0.00 0.00 0.00 73 1013.5
20240523031001 56 286 0.0 0.0 0.00 0.00 0.00 72 1013.4
20240523030503 57 286 0.0 0.0 0.00 0.00 0.00 72 1013.3
20240523030001 57 286 0.0 0.0 0.00 0.00 0.00 71 1013.3
20240523025502 58 286 0.0 0.0 0.00 0.00 0.00 70 1013.3
20240523025002 58 285 0.0 0.0 0.00 0.00 0.00 67 1013.3
20240523024503 59 285 0.0 0.0 0.00 0.00 0.00 66 1013.1
20240523024003 61 285 0.0 0.0 0.00 0.00 0.00 64 1013.1
20240523023502 62 285 0.0 0.0 0.00 0.00 0.00 62 1013.4
20240523023002 63 283 1.0 2.0 0.00 0.00 0.00 59 1013.1
20240523022502 61 280 2.0 2.0 0.00 0.00 0.00 60 1013.0
20240523022002 60 305 0.0 0.0 0.00 0.00 0.00 62 1013.0
20240523021503 61 309 0.0 0.0 0.00 0.00 0.00 61 1012.9
20240523021003 61 306 0.0 0.0 0.00 0.00 0.00 60 1012.7
20240523020502 61 307 0.0 0.0 0.00 0.00 0.00 59 1012.6
20240523020002 62 309 0.0 0.0 0.00 0.00 0.00 59 1012.6
20240523015502 62 307 0.0 0.0 0.00 0.00 0.00 57 1012.8
20240523015003 64 312 0.0 0.0 0.00 0.00 0.00 54 1012.8
20240523014502 64 312 0.0 0.0 0.00 0.00 0.00 53 1012.4
20240523014002 66 311 0.0 0.0 0.00 0.00 0.00 51 1012.6
20240523013502 66 313 0.0 0.0 0.00 0.00 0.00 48 1012.6
20240523013002 67 316 0.0 0.0 0.00 0.00 0.00 48 1012.4
20240523012502 67 316 0.0 2.0 0.00 0.00 0.00 47 1012.4
20240523012002 68 322 1.0 2.0 0.00 0.00 0.00 46 1012.4
20240523011502 68 325 0.0 2.0 0.00 0.00 0.00 45 1012.2
20240523011002 70 308 0.0 2.0 0.00 0.00 0.00 44 1012.2
20240523010502 70 349 1.0 3.0 0.00 0.00 0.00 42 1012.4
20240523010003 70 311 2.0 5.0 0.00 0.00 0.00 42 1012.1
20240523005503 70 309 2.0 6.0 0.00 0.00 0.00 41 1012.0
20240523005003 70 283 2.0 4.0 0.00 0.00 0.00 41 1011.9
20240523004501 71 315 3.0 5.0 0.00 0.00 0.00 41 1011.8
20240523004002 71 299 4.0 6.0 0.00 0.00 0.00 40 1012.0
20240523003502 72 320 4.0 5.0 0.00 0.00 0.00 39 1012.1
20240523003001 72 2 5.0 6.0 0.00 0.00 0.00 38 1011.9
20240523002502 73 305 3.0 4.0 0.00 0.00 0.00 39 1011.5
20240523002001 73 315 3.0 10.0 0.00 0.00 0.00 38 1011.6
20240523001502 73 299 6.0 7.0 0.00 0.00 0.00 37 1011.4
20240523001003 74 341 6.0 10.0 0.00 0.00 0.00 37 1011.5
20240523000503 74 291 3.0 6.0 0.00 0.00 0.00 37 1011.5
20240523000001 74 274 4.0 7.0 0.00 0.00 0.00 37 1011.4
20240522235502 74 314 7.0 9.0 0.00 0.00 0.00 36 1011.4
20240522235002 74 320 4.0 9.0 0.00 0.00 0.00 36 1011.3
20240522234503 74 305 7.0 9.0 0.00 0.00 0.00 35 1011.2
20240522234002 74 295 4.0 10.0 0.00 0.00 0.00 36 1011.2
20240522233503 74 31 3.0 9.0 0.00 0.00 0.00 35 1011.1
20240522233002 74 328 4.0 7.0 0.00 0.00 0.00 35 1010.8
20240522232501 74 318 9.0 11.0 0.00 0.00 0.00 33 1010.9
20240522232003 75 301 6.0 9.0 0.00 0.00 0.00 33 1010.8
20240522231502 75 338 7.0 10.0 0.00 0.00 0.00 34 1011.0
20240522231002 75 0 4.0 10.0 0.00 0.00 0.00 35 1011.0
20240522230501 75 323 5.0 10.0 0.00 0.00 0.00 34 1010.8
20240522230003 75 4 5.0 10.0 0.00 0.00 0.00 33 1010.6
20240522225502 75 332 8.0 12.0 0.00 0.00 0.00 33 1010.5
20240522225001 75 245 6.0 12.0 0.00 0.00 0.00 33 1010.3
20240522224502 76 254 6.0 11.0 0.00 0.00 0.00 34 1010.7
20240522224002 76 254 5.0 12.0 0.00 0.00 0.00 35 1010.4
20240522223503 76 308 8.0 12.0 0.00 0.00 0.00 35 1010.2
20240522223002 75 291 2.0 9.0 0.00 0.00 0.00 41 1010.6
20240522222503 76 274 4.0 9.0 0.00 0.00 0.00 38 1010.4
20240522222001 75 335 4.0 7.0 0.00 0.00 0.00 35 1010.5
20240522221502 76 345 6.0 12.0 0.00 0.00 0.00 37 1010.7
20240522221002 76 298 3.0 7.0 0.00 0.00 0.00 36 1010.6
20240522220501 76 341 6.0 12.0 0.00 0.00 0.00 37 1010.6
20240522220003 76 262 6.0 16.0 0.00 0.00 0.00 36 1010.8
20240522215502 76 313 6.0 11.0 0.00 0.00 0.00 38 1011.1
20240522215001 75 280 6.0 13.0 0.00 0.00 0.00 39 1010.8
20240522214503 76 323 7.0 11.0 0.00 0.00 0.00 39 1011.1
20240522214002 76 275 9.0 11.0 0.00 0.00 0.00 40 1010.8
20240522213502 75 310 3.0 10.0 0.00 0.00 0.00 42 1010.9
20240522213003 76 296 11.0 13.0 0.00 0.00 0.00 41 1011.0
20240522212503 76 254 7.0 14.0 0.00 0.00 0.00 42 1011.1
20240522212002 76 313 8.0 18.0 0.00 0.00 0.00 43 1010.9
20240522211504 75 247 5.0 13.0 0.00 0.00 0.00 43 1011.0
20240522211002 75 247 9.0 16.0 0.00 0.00 0.00 43 1010.8
20240522210502 75 142 4.0 16.0 0.00 0.00 0.00 45 1010.9
20240522210002 75 342 7.0 11.0 0.00 0.00 0.00 45 1010.9
20240522205502 75 3 9.0 14.0 0.00 0.00 0.00 45 1010.8
20240522205002 75 331 10.0 16.0 0.00 0.00 0.00 46 1010.7
20240522204501 74 317 6.0 12.0 0.00 0.00 0.00 48 1010.7
20240522204002 76 331 9.0 15.0 0.00 0.00 0.00 46 1010.8
20240522203502 75 269 9.0 14.0 0.00 0.00 0.00 45 1011.1
20240522203002 75 274 4.0 10.0 0.00 0.00 0.00 49 1010.9
20240522202502 75 262 7.0 13.0 0.00 0.00 0.00 47 1010.9
20240522202002 75 277 3.0 10.0 0.00 0.00 0.00 47 1010.7
20240522201503 75 290 8.0 14.0 0.00 0.00 0.00 46 1010.6
20240522201002 75 255 5.0 11.0 0.00 0.00 0.00 48 1010.6
20240522200502 74 311 5.0 12.0 0.00 0.00 0.00 50 1010.7
20240522200003 75 252 8.0 10.0 0.00 0.00 0.00 49 1010.5
20240522195502 74 267 3.0 10.0 0.00 0.00 0.00 51 1010.8
20240522195002 74 301 2.0 11.0 0.00 0.00 0.00 53 1010.6
20240522194502 73 282 8.0 11.0 0.00 0.00 0.00 51 1010.5
20240522194003 74 274 3.0 6.0 0.00 0.00 0.00 53 1010.7
20240522193503 74 274 9.0 12.0 0.00 0.00 0.00 51 1010.6
20240522193001 74 356 3.0 10.0 0.00 0.00 0.00 52 1010.8
20240522192502 74 311 4.0 10.0 0.00 0.00 0.00 53 1010.5
20240522192002 74 261 7.0 12.0 0.00 0.00 0.00 52 1010.5
20240522191503 75 323 9.0 12.0 0.00 0.00 0.00 52 1010.5
20240522191002 74 19 8.0 11.0 0.00 0.00 0.00 52 1010.4
20240522190502 74 312 3.0 13.0 0.00 0.00 0.00 57 1010.6
20240522190002 74 247 5.0 11.0 0.00 0.00 0.00 54 1010.6
20240522185502 74 269 10.0 16.0 0.00 0.00 0.00 53 1010.6
20240522185002 74 311 4.0 9.0 0.00 0.00 0.00 55 1010.7
20240522184502 74 234 9.0 16.0 0.00 0.00 0.00 53 1010.6
20240522184002 74 347 5.0 7.0 0.00 0.00 0.00 56 1010.6
20240522183502 74 240 7.0 11.0 0.00 0.00 0.00 53 1010.5
20240522183002 72 345 9.0 11.0 0.00 0.00 0.00 54 1010.3
20240522182502 73 291 6.0 12.0 0.00 0.00 0.00 57 1010.4
20240522182002 74 278 4.0 13.0 0.00 0.00 0.00 56 1010.5
20240522181502 74 326 5.0 11.0 0.00 0.00 0.00 55 1010.3
20240522181002 74 307 5.0 12.0 0.00 0.00 0.00 54 1010.3
20240522180502 73 268 6.0 14.0 0.00 0.00 0.00 55 1010.4
20240522180002 72 312 5.0 11.0 0.00 0.00 0.00 57 1010.3
20240522175502 73 348 8.0 12.0 0.00 0.00 0.00 56 1010.3
20240522175002 72 292 6.0 12.0 0.00 0.00 0.00 58 1010.0
20240522174502 73 265 4.0 11.0 0.00 0.00 0.00 57 1009.8
20240522174002 72 258 7.0 11.0 0.00 0.00 0.00 55 1009.8
20240522173503 72 0 3.0 10.0 0.00 0.00 0.00 57 1010.1
20240522173003 72 255 2.0 10.0 0.00 0.00 0.00 59 1010.1
20240522172502 72 301 7.0 12.0 0.00 0.00 0.00 56 1010.4
20240522172002 72 254 6.0 9.0 0.00 0.00 0.00 59 1010.3
20240522171501 72 267 4.0 10.0 0.00 0.00 0.00 61 1010.4
20240522171002 71 280 3.0 12.0 0.00 0.00 0.00 61 1010.2
20240522170503 71 270 6.0 7.0 0.00 0.00 0.00 59 1010.1
20240522170001 71 329 5.0 10.0 0.00 0.00 0.00 60 1010.1
20240522165503 71 282 4.0 14.0 0.00 0.00 0.00 60 1010.1
20240522165002 71 353 4.0 10.0 0.00 0.00 0.00 60 1010.2
20240522164502 71 316 4.0 11.0 0.00 0.00 0.00 60 1010.1
20240522164002 71 297 5.0 10.0 0.00 0.00 0.00 63 1009.8
20240522163502 71 223 3.0 9.0 0.00 0.00 0.00 62 1010.0
20240522163001 70 177 3.0 7.0 0.00 0.00 0.00 67 1010.2
20240522162503 70 176 5.0 10.0 0.00 0.00 0.00 62 1009.9
20240522162003 70 277 6.0 9.0 0.00 0.00 0.00 62 1009.9
20240522161503 70 239 4.0 13.0 0.00 0.00 0.00 63 1010.2
20240522161002 71 297 4.0 6.0 0.00 0.00 0.00 64 1009.8
20240522160501 70 273 6.0 7.0 0.00 0.00 0.00 63 1009.9
20240522160002 70 314 2.0 9.0 0.00 0.00 0.00 67 1009.9
20240522155502 70 264 3.0 9.0 0.00 0.00 0.00 65 1010.1
20240522155003 70 278 5.0 6.0 0.00 0.00 0.00 64 1010.2
20240522154502 70 317 5.0 6.0 0.00 0.00 0.00 64 1009.8
20240522154002 69 311 4.0 6.0 0.00 0.00 0.00 63 1009.9
20240522153502 69 307 4.0 10.0 0.00 0.00 0.00 67 1010.1
20240522153002 69 208 2.0 5.0 0.00 0.00 0.00 68 1010.0
20240522152501 69 257 2.0 6.0 0.00 0.00 0.00 64 1010.0
20240522152003 70 303 2.0 6.0 0.00 0.00 0.00 64 1010.0
20240522151502 69 227 3.0 6.0 0.00 0.00 0.00 67 1009.9
20240522151002 68 250 3.0 10.0 0.00 0.00 0.00 66 1009.9
20240522150503 68 230 4.0 10.0 0.00 0.00 0.00 66 1009.7
20240522150003 68 312 6.0 11.0 0.00 0.00 0.00 66 1009.8
20240522145503 68 300 4.0 9.0 0.00 0.00 0.00 66 1009.5
20240522145003 67 279 6.0 11.0 0.00 0.00 0.00 67 1009.6
20240522144501 67 303 5.0 10.0 0.00 0.00 0.00 68 1009.4
20240522144002 67 266 7.0 9.0 0.00 0.00 0.00 66 1009.3
20240522143502 67 325 2.0 11.0 0.00 0.00 0.00 70 1009.6
20240522143001 67 229 5.0 7.0 0.00 0.00 0.00 69 1009.4
20240522142502 67 214 6.0 11.0 0.00 0.00 0.00 71 1009.4
20240522142002 67 316 2.0 6.0 0.00 0.00 0.00 72 1009.6
20240522141502 67 305 4.0 10.0 0.00 0.00 0.00 71 1009.3
20240522141003 66 299 4.0 6.0 0.00 0.00 0.00 70 1009.3
20240522140502 66 315 5.0 7.0 0.00 0.00 0.00 73 1009.4
20240522140002 66 162 3.0 5.0 0.00 0.00 0.00 73 1009.6
20240522135502 66 283 6.0 10.0 0.00 0.00 0.00 73 1009.4
20240522135001 65 203 4.0 10.0 0.00 0.00 0.00 73 1009.4
20240522134503 65 244 9.0 11.0 0.00 0.00 0.00 72 1009.0
20240522134002 65 336 5.0 9.0 0.00 0.00 0.00 73 1009.2
20240522133502 65 250 3.0 7.0 0.00 0.00 0.00 74 1009.0
20240522133004 65 237 6.0 10.0 0.00 0.00 0.00 74 1009.2
20240522132501 65 270 5.0 12.0 0.00 0.00 0.00 75 1008.9
20240522132002 65 303 5.0 11.0 0.00 0.00 0.00 75 1008.9
20240522131503 65 268 6.0 9.0 0.00 0.00 0.00 76 1008.7
20240522131003 64 260 3.0 9.0 0.00 0.00 0.00 77 1008.6
20240522130502 64 335 3.0 5.0 0.00 0.00 0.00 77 1008.4
20240522130002 64 270 2.0 7.0 0.00 0.00 0.00 78 1008.8
20240522125502 64 203 4.0 10.0 0.00 0.00 0.00 78 1008.6
20240522125003 63 314 4.0 6.0 0.00 0.00 0.00 79 1008.6
20240522124503 64 296 4.0 9.0 0.00 0.00 0.00 79 1008.4
20240522124002 64 261 4.0 12.0 0.00 0.00 0.00 79 1008.5
20240522123502 64 17 8.0 10.0 0.00 0.00 0.00 79 1008.4
20240522123002 64 260 5.0 6.0 0.00 0.00 0.00 79 1008.3
20240522122502 64 250 4.0 11.0 0.00 0.00 0.00 79 1008.3
20240522122002 64 258 5.0 7.0 0.00 0.00 0.00 79 1008.4
20240522121502 64 298 6.0 12.0 0.00 0.00 0.00 78 1007.9
20240522121002 64 265 4.0 10.0 0.00 0.00 0.00 77 1007.9
20240522120502 64 220 4.0 10.0 0.00 0.00 0.00 78 1007.6
20240522120002 64 218 5.0 11.0 0.00 0.00 0.00 78 1007.6
20240522115501 64 221 4.0 13.0 0.00 0.00 0.00 78 1007.6
20240522115002 64 234 5.0 7.0 0.00 0.00 0.00 78 1007.2
20240522114502 64 284 4.0 7.0 0.00 0.00 0.00 79 1007.5
20240522114001 63 232 5.0 7.0 0.00 0.00 0.00 79 1007.4
20240522113502 63 291 5.0 7.0 0.00 0.00 0.00 80 1007.3
20240522113002 63 283 2.0 6.0 0.00 0.00 0.00 80 1007.1
20240522112502 63 252 4.0 9.0 0.00 0.00 0.00 81 1007.5
20240522112003 63 251 4.0 7.0 0.00 0.00 0.00 81 1007.3
20240522111502 63 257 5.0 7.0 0.00 0.00 0.00 81 1007.4
20240522111002 62 301 1.0 6.0 0.00 0.00 0.00 82 1007.3
20240522110503 62 221 6.0 7.0 0.00 0.00 0.00 82 1007.1
20240522110002 62 282 3.0 6.0 0.00 0.00 0.00 83 1007.3
20240522105502 62 304 1.0 6.0 0.00 0.00 0.00 82 1007.0
20240522105002 63 277 3.0 4.0 0.00 0.00 0.00 82 1006.9
20240522104502 63 286 4.0 9.0 0.00 0.00 0.00 82 1006.7
20240522104002 63 295 3.0 5.0 0.00 0.00 0.00 82 1006.7
20240522103501 63 289 4.0 5.0 0.00 0.00 0.00 82 1006.6
20240522103002 63 279 4.0 6.0 0.00 0.00 0.00 82 1006.6
20240522102502 63 287 3.0 6.0 0.00 0.00 0.00 81 1006.6
20240522102002 64 277 4.0 10.0 0.00 0.00 0.00 81 1006.7